Time;durP1;ratioP1;P1;durP2;ratioP2;P2;SDS_P1;SDS_P2;PMS_P1;PMS_P2;Temp;Humidity;BMP_temperature;BMP_pressure;BME280_temperature;BME280_humidity;BME280_pressure;Samples;Min_cycle;Max_cycle;Signal;HPM_P1;HPM_P2
2021/01/10 00:00:19;;;;;;;14.73;9.90;;;;;;;19.68;39.10;100828.66;5017221;28;20034;-75
2021/01/10 00:02:45;;;;;;;15.70;9.88;;;;;;;19.65;38.94;100829.56;5018013;28;20113;-75
2021/01/10 00:05:24;;;;;;;18.92;11.50;;;;;;;19.63;38.72;100826.94;5016187;28;20030;-73
2021/01/10 00:07:49;;;;;;;16.42;11.25;;;;;;;19.61;38.99;100825.22;5013968;28;20053;-76
2021/01/10 00:10:16;;;;;;;17.17;10.63;;;;;;;19.60;39.00;100827.00;5017373;28;20049;-77
2021/01/10 00:12:43;;;;;;;13.95;9.73;;;;;;;19.61;38.99;100825.22;5017389;28;20030;-74
2021/01/10 00:15:12;;;;;;;11.88;9.95;;;;;;;19.59;38.96;100822.63;5014793;28;20034;-75
2021/01/10 00:17:39;;;;;;;14.27;10.30;;;;;;;19.59;39.06;100825.25;5014430;28;20041;-75
2021/01/10 00:20:07;;;;;;;14.68;10.40;;;;;;;19.59;38.88;100822.63;5014144;28;20527;-74
2021/01/10 00:22:32;;;;;;;12.88;9.88;;;;;;;19.60;38.91;100827.00;5017915;28;20029;-74
2021/01/10 00:24:58;;;;;;;17.48;11.48;;;;;;;19.58;39.07;100820.88;5014645;28;20104;-75
2021/01/10 00:27:23;;;;;;;15.30;10.70;;;;;;;19.61;38.90;100825.22;5013976;28;20109;-74
2021/01/10 00:29:52;;;;;;;14.82;11.15;;;;;;;19.58;38.87;100822.59;5015644;28;20040;-77
2021/01/10 00:32:18;;;;;;;15.63;10.07;;;;;;;19.56;38.77;100820.00;5015768;28;20041;-73
2021/01/10 00:34:44;;;;;;;17.48;10.27;;;;;;;19.57;38.90;100826.13;5018102;28;20032;-75
2021/01/10 00:37:15;;;;;;;14.82;10.27;;;;;;;19.55;38.92;100820.00;5002657;28;20032;-74
2021/01/10 00:39:41;;;;;;;13.85;10.30;;;;;;;19.56;38.96;100827.88;5018058;28;20064;-74
2021/01/10 00:42:08;;;;;;;16.38;10.50;;;;;;;19.55;38.99;100826.16;5021743;28;20042;-75
2021/01/10 00:44:34;;;;;;;13.38;10.00;;;;;;;19.56;38.82;100827.00;5022232;28;20065;-74
2021/01/10 00:46:59;;;;;;;12.65;8.75;;;;;;;19.55;38.80;100826.16;5021489;28;20072;-75
2021/01/10 00:49:25;;;;;;;14.30;9.52;;;;;;;19.54;38.90;100820.91;5021881;28;20042;-74
2021/01/10 00:51:52;;;;;;;13.57;10.20;;;;;;;19.57;38.92;100823.50;5018842;28;20052;-74
2021/01/10 00:54:18;;;;;;;14.15;9.95;;;;;;;19.54;39.02;100816.50;5022476;28;20037;-75
2021/01/10 00:56:43;;;;;;;12.90;9.27;;;;;;;19.53;39.00;100822.66;5020977;28;20045;-77
2021/01/10 00:59:08;;;;;;;12.57;8.75;;;;;;;19.55;38.81;100822.63;5022242;28;20041;-75
2021/01/10 01:01:34;;;;;;;16.45;9.98;;;;;;;19.54;38.91;100823.53;5022731;28;20081;-73
2021/01/10 01:03:59;;;;;;;12.70;9.10;;;;;;;19.53;39.02;100824.44;5022014;28;20065;-74
2021/01/10 01:06:24;;;;;;;12.75;9.30;;;;;;;19.53;38.81;100830.53;5021191;28;20084;-74
2021/01/10 01:08:50;;;;;;;11.88;9.00;;;;;;;19.53;38.90;100825.28;5019324;28;20080;-74
2021/01/10 01:11:15;;;;;;;13.18;9.93;;;;;;;19.54;38.98;100829.66;5020518;28;20068;-77
2021/01/10 01:13:40;;;;;;;13.40;9.93;;;;;;;19.52;38.90;100828.78;5021299;28;20097;-73
2021/01/10 01:16:07;;;;;;;13.68;9.80;;;;;;;19.54;38.77;100832.28;5022936;28;20030;-75
2021/01/10 01:18:33;;;;;;;15.77;9.20;;;;;;;19.54;38.80;100839.31;5024598;28;20051;-79
2021/01/10 01:20:59;;;;;;;12.32;8.90;;;;;;;19.55;38.73;100835.78;5020537;28;20041;-73
2021/01/10 01:23:24;;;;;;;13.00;9.40;;;;;;;19.53;38.75;100834.94;5021316;28;20082;-77
2021/01/10 01:25:50;;;;;;;12.80;9.50;;;;;;;19.54;38.67;100834.91;5019079;28;20109;-76
2021/01/10 01:28:15;;;;;;;13.25;8.75;;;;;;;19.54;38.85;100839.31;5021631;28;20040;-76
2021/01/10 01:30:41;;;;;;;13.93;9.57;;;;;;;19.52;38.82;100836.69;5020899;28;20037;-76
2021/01/10 01:33:06;;;;;;;13.00;8.93;;;;;;;19.54;38.72;100840.16;5021145;28;20038;-75
2021/01/10 01:35:31;;;;;;;13.15;9.02;;;;;;;19.53;38.85;100840.19;5021568;28;20034;-74
2021/01/10 01:37:57;;;;;;;14.23;9.48;;;;;;;19.53;38.92;100845.47;5022235;28;20033;-74
2021/01/10 01:40:23;;;;;;;12.27;8.70;;;;;;;19.54;38.68;100841.94;5021432;28;20041;-74
2021/01/10 01:42:48;;;;;;;11.48;8.57;;;;;;;19.54;38.78;100840.16;5020234;28;20084;-74
2021/01/10 01:45:13;;;;;;;12.18;7.72;;;;;;;19.52;38.91;100844.56;5022640;28;20032;-74
2021/01/10 01:47:39;;;;;;;10.68;8.23;;;;;;;19.53;38.79;100845.47;5017057;28;20037;-74
2021/01/10 01:50:06;;;;;;;13.80;9.13;;;;;;;19.52;38.74;100841.94;5021569;28;20471;-75
2021/01/10 01:52:32;;;;;;;11.23;8.25;;;;;;;19.53;38.91;100842.81;5018553;28;20069;-73
2021/01/10 01:54:58;;;;;;;11.45;8.07;;;;;;;19.53;38.54;100840.19;5018295;28;20097;-73
2021/01/10 01:57:23;;;;;;;11.30;7.85;;;;;;;19.53;38.92;100845.47;5019970;28;20037;-73
2021/01/10 01:59:49;;;;;;;11.82;8.82;;;;;;;19.52;38.81;100839.31;5017988;28;20054;-74
2021/01/10 02:02:14;;;;;;;11.57;8.40;;;;;;;19.53;38.79;100845.47;5019535;28;20041;-76
2021/01/10 02:04:56;;;;;;;11.90;8.40;;;;;;;19.52;38.59;100846.34;5018037;28;20038;-75
2021/01/10 02:07:28;;;;;;;11.93;8.50;;;;;;;19.51;38.80;100855.09;5020214;28;20047;-74
2021/01/10 02:10:06;;;;;;;10.38;7.47;;;;;;;19.50;38.79;100856.00;5022006;28;20099;-75
2021/01/10 02:12:34;;;;;;;10.63;7.72;;;;;;;19.50;38.75;100845.47;5031590;28;20037;-74
2021/01/10 02:15:09;;;;;;;10.00;7.72;;;;;;;19.52;38.69;100851.59;5031537;28;20029;-79
2021/01/10 02:17:35;;;;;;;11.25;7.47;;;;;;;19.51;38.43;100845.44;5030668;28;20087;-74
2021/01/10 02:20:04;;;;;;;10.00;7.70;;;;;;;19.50;38.39;100841.06;5011759;28;20438;-74
2021/01/10 02:22:35;;;;;;;10.15;7.45;;;;;;;19.50;38.77;100837.59;5010404;28;20597;-76
2021/01/10 02:25:03;;;;;;;9.65;7.00;;;;;;;19.51;38.72;100840.19;5009610;28;20029;-75
2021/01/10 02:27:28;;;;;;;9.35;7.38;;;;;;;19.50;38.80;100841.06;5011811;28;20498;-75
2021/01/10 02:29:54;;;;;;;12.15;8.30;;;;;;;19.48;38.77;100838.47;5011480;28;20034;-75
2021/01/10 02:32:21;;;;;;;10.95;7.28;;;;;;;19.48;38.69;100838.47;5010141;28;20053;-74
2021/01/10 02:34:51;;;;;;;9.93;7.32;;;;;;;19.49;38.51;100839.31;5011516;28;20046;-75
2021/01/10 02:37:35;;;;;;;9.68;7.10;;;;;;;19.49;38.63;100844.59;5012504;28;20100;-74
2021/01/10 02:40:14;;;;;;;10.57;7.68;;;;;;;19.48;38.76;100829.69;5011374;28;20112;-76
2021/01/10 02:43:05;;;;;;;11.20;8.05;;;;;;;19.48;38.43;100832.31;5011359;28;20034;-74
2021/01/10 02:45:32;;;;;;;10.75;7.18;;;;;;;19.48;38.70;100833.22;5010150;28;20022;-74
2021/01/10 02:47:58;;;;;;;11.25;7.90;;;;;;;19.50;38.31;100827.06;5012518;28;20038;-75
2021/01/10 02:50:23;;;;;;;9.02;6.93;;;;;;;19.48;38.62;100821.81;5019568;28;20029;-73
2021/01/10 02:52:49;;;;;;;11.45;8.13;;;;;;;19.47;38.73;100820.94;5030899;28;20065;-75
2021/01/10 02:55:16;;;;;;;10.93;7.35;;;;;;;19.48;38.79;100819.19;5029949;28;20034;-75
2021/01/10 02:57:46;;;;;;;9.80;7.57;;;;;;;19.47;38.67;100818.31;5030850;28;20029;-75
2021/01/10 03:00:13;;;;;;;10.38;7.43;;;;;;;19.49;38.80;100818.31;5046075;28;20560;-75
2021/01/10 03:02:39;;;;;;;9.23;7.18;;;;;;;19.48;38.75;100820.06;5030813;28;20049;-73
2021/01/10 03:05:05;;;;;;;10.40;7.30;;;;;;;19.49;38.55;100813.03;5030724;28;20414;-76
2021/01/10 03:07:34;;;;;;;9.65;6.68;;;;;;;19.49;38.85;100815.66;5027889;28;20037;-74
2021/01/10 03:10:00;;;;;;;11.02;7.43;;;;;;;19.47;38.62;100815.69;5027731;28;20041;-74
2021/01/10 03:12:26;;;;;;;10.40;7.57;;;;;;;19.48;38.58;100817.44;5029420;28;20041;-75
2021/01/10 03:15:01;;;;;;;10.20;8.07;;;;;;;19.48;38.57;100808.66;5030659;28;20029;-75
2021/01/10 03:17:36;;;;;;;12.10;7.88;;;;;;;19.47;38.47;100810.44;5030713;28;20071;-75
2021/01/10 03:20:06;;;;;;;11.50;7.72;;;;;;;19.47;38.60;100814.81;5030070;28;20045;-75
2021/01/10 03:22:31;;;;;;;9.80;6.90;;;;;;;19.46;38.58;100808.69;5030115;28;20034;-75
2021/01/10 03:24:58;;;;;;;10.40;6.97;;;;;;;19.47;38.60;100812.19;5028964;28;20069;-74
2021/01/10 03:27:23;;;;;;;10.27;7.53;;;;;;;19.47;38.73;100806.94;5030508;28;20091;-73
2021/01/10 03:29:49;;;;;;;10.10;7.28;;;;;;;19.48;38.22;100806.94;5030284;28;20037;-75
2021/01/10 03:32:15;;;;;;;9.45;7.63;;;;;;;19.46;38.50;100808.69;5030570;28;20037;-77
2021/01/10 03:34:41;;;;;;;10.73;7.97;;;;;;;19.47;38.38;100807.81;5030130;28;20177;-75
2021/01/10 03:37:06;;;;;;;9.25;6.85;;;;;;;19.46;38.75;100798.19;5029631;28;20555;-74
2021/01/10 03:39:32;;;;;;;10.55;7.00;;;;;;;19.45;38.68;100801.69;5029931;28;20163;-75
2021/01/10 03:41:58;;;;;;;11.43;8.15;;;;;;;19.47;38.46;100799.94;5030209;28;20399;-74
2021/01/10 03:44:24;;;;;;;9.90;7.57;;;;;;;19.47;38.50;100793.78;5030092;28;20037;-77
2021/01/10 03:46:50;;;;;;;8.32;6.88;;;;;;;19.46;38.33;100797.31;5030091;28;20037;-74
2021/01/10 03:49:16;;;;;;;8.90;6.82;;;;;;;19.45;38.55;100799.06;5029708;28;20057;-75
2021/01/10 03:51:41;;;;;;;8.50;6.75;;;;;;;19.45;38.38;100796.44;5029799;28;20029;-75
2021/01/10 03:54:07;;;;;;;9.45;7.15;;;;;;;19.46;38.51;100792.06;5029719;28;20060;-75
2021/01/10 03:56:32;;;;;;;9.90;6.93;;;;;;;19.45;38.51;100795.56;5030130;28;20064;-74
2021/01/10 03:58:58;;;;;;;8.25;6.38;;;;;;;19.45;38.37;100798.22;5029642;28;20037;-75
2021/01/10 04:01:23;;;;;;;10.70;7.40;;;;;;;19.47;38.61;100799.94;5029827;28;20048;-76
2021/01/10 04:03:48;;;;;;;9.27;6.95;;;;;;;19.45;38.54;100798.22;5025523;28;20042;-74
2021/01/10 04:06:14;;;;;;;10.20;7.25;;;;;;;19.46;38.46;100799.94;5007744;28;20082;-75
2021/01/10 04:08:39;;;;;;;9.18;7.00;;;;;;;19.44;38.56;100799.09;5009528;28;20030;-74
2021/01/10 04:11:05;;;;;;;7.78;6.68;;;;;;;19.45;38.57;100796.44;5011451;28;20041;-76
2021/01/10 04:13:30;;;;;;;10.50;7.10;;;;;;;19.43;38.52;100800.81;5010151;28;20034;-76
2021/01/10 04:15:56;;;;;;;8.43;6.40;;;;;;;19.44;38.56;100788.56;5010208;28;20034;-76
2021/01/10 04:18:22;;;;;;;10.05;7.13;;;;;;;19.44;38.48;100799.94;5009935;28;20038;-74
2021/01/10 04:20:47;;;;;;;9.20;6.40;;;;;;;19.43;38.58;100795.56;5028585;28;20045;-75
2021/01/10 04:23:13;;;;;;;8.63;6.60;;;;;;;19.42;38.57;100798.22;5028840;28;20440;-76
2021/01/10 04:25:39;;;;;;;9.50;7.20;;;;;;;19.43;38.39;100792.94;5029536;28;20041;-75
2021/01/10 04:28:04;;;;;;;8.52;6.32;;;;;;;19.44;38.49;100793.84;5028718;28;20030;-73
2021/01/10 04:30:30;;;;;;;9.98;7.15;;;;;;;19.43;38.56;100794.72;5028595;28;20045;-74
2021/01/10 04:32:55;;;;;;;9.77;7.28;;;;;;;19.42;38.50;100793.81;5029562;28;20155;-77
2021/01/10 04:35:20;;;;;;;9.95;7.53;;;;;;;19.44;38.39;100793.84;5029367;28;20564;-76
2021/01/10 04:37:46;;;;;;;9.35;6.90;;;;;;;19.43;38.51;100790.31;5022863;28;20126;-75
2021/01/10 04:40:12;;;;;;;9.52;7.05;;;;;;;19.43;38.42;100792.09;5008393;28;20050;-76
2021/01/10 04:42:37;;;;;;;11.63;7.10;;;;;;;19.43;38.53;100792.94;5008488;28;20022;-73
2021/01/10 04:45:03;;;;;;;9.68;7.43;;;;;;;19.42;38.54;100796.47;5009845;28;20501;-75
2021/01/10 04:47:29;;;;;;;9.90;7.55;;;;;;;19.46;38.50;100799.94;5008566;28;20174;-77
2021/01/10 04:49:55;;;;;;;9.07;7.03;;;;;;;19.44;38.56;100802.56;5012010;28;20053;-74
2021/01/10 04:52:22;;;;;;;8.68;6.90;;;;;;;19.42;38.38;100804.34;5009723;28;20088;-75
2021/01/10 04:54:51;;;;;;;12.23;8.57;;;;;;;19.41;38.70;100799.97;5009884;28;20025;-75
2021/01/10 04:57:18;;;;;;;9.20;7.20;;;;;;;19.42;38.46;100799.09;5009491;28;20046;-74
2021/01/10 04:59:44;;;;;;;11.27;7.35;;;;;;;19.42;38.40;100800.84;5009508;28;20518;-76
2021/01/10 05:02:10;;;;;;;9.93;7.05;;;;;;;19.42;38.44;100804.34;5009500;28;20022;-74
2021/01/10 05:04:36;;;;;;;10.88;8.15;;;;;;;19.45;38.32;100801.69;5009036;28;20084;-74
2021/01/10 05:07:04;;;;;;;12.77;8.70;;;;;;;19.44;38.37;100799.09;5009448;28;20058;-74
2021/01/10 05:09:30;;;;;;;15.75;7.93;;;;;;;19.42;38.44;100801.72;5015219;28;20061;-75
2021/01/10 05:11:55;;;;;;;13.38;8.57;;;;;;;19.42;38.35;100795.59;5025418;28;20516;-76
2021/01/10 05:14:21;;;;;;;11.75;8.43;;;;;;;19.41;38.51;100799.97;5029320;28;20061;-74
2021/01/10 05:16:47;;;;;;;10.95;8.05;;;;;;;19.38;38.44;100792.13;5028074;28;20064;-76
2021/01/10 05:19:18;;;;;;;10.50;7.68;;;;;;;19.40;38.60;100798.22;5028308;28;20383;-77
2021/01/10 05:21:44;;;;;;;14.45;9.15;;;;;;;19.38;38.33;100793.88;5020321;28;20030;-75
2021/01/10 05:24:18;;;;;;;11.32;8.95;;;;;;;19.38;38.52;100796.50;5012654;28;20546;-74
2021/01/10 05:26:44;;;;;;;13.40;8.73;;;;;;;19.38;38.43;100796.50;5013009;28;20034;-74
2021/01/10 05:29:11;;;;;;;11.02;8.48;;;;;;;19.39;38.55;100780.72;5022193;28;20048;-74
2021/01/10 05:31:42;;;;;;;11.20;8.38;;;;;;;19.39;38.38;100799.09;5032063;28;20087;-75
2021/01/10 05:34:14;;;;;;;13.02;8.43;;;;;;;19.41;38.20;100791.22;5032442;28;20038;-76
2021/01/10 05:36:40;;;;;;;13.43;8.98;;;;;;;19.42;38.32;100791.19;5032647;28;20091;-74
2021/01/10 05:39:24;;;;;;;12.80;9.25;;;;;;;19.40;38.52;100790.34;5032280;28;20438;-76
2021/01/10 05:42:01;;;;;;;12.02;9.20;;;;;;;19.42;38.47;100787.72;5016383;28;20038;-77
2021/01/10 05:44:29;;;;;;;14.20;9.60;;;;;;;19.41;38.18;100789.47;5012698;28;20618;-76
2021/01/10 05:47:08;;;;;;;12.50;8.98;;;;;;;19.42;38.34;100780.69;5011167;28;20033;-74
2021/01/10 05:49:34;;;;;;;14.10;10.07;;;;;;;19.43;38.36;100787.69;5016019;28;20055;-77
2021/01/10 05:52:07;;;;;;;12.75;9.07;;;;;;;19.41;38.35;100778.94;5032297;28;20033;-74
2021/01/10 05:54:44;;;;;;;12.83;9.87;;;;;;;19.41;38.59;100780.72;5031879;28;20037;-76
2021/01/10 05:57:14;;;;;;;12.40;8.95;;;;;;;19.42;38.25;100779.84;5032003;28;20033;-75
2021/01/10 05:59:47;;;;;;;13.23;9.35;;;;;;;19.41;38.15;100786.81;5031965;28;20041;-75
2021/01/10 06:02:13;;;;;;;16.10;10.30;;;;;;;19.41;38.58;100778.94;5032059;28;20570;-74
2021/01/10 06:04:40;;;;;;;13.07;9.48;;;;;;;19.41;38.46;100784.19;5019647;28;20633;-75
2021/01/10 06:07:05;;;;;;;14.75;10.10;;;;;;;19.43;38.38;100776.31;5010772;28;20030;-74
2021/01/10 06:09:47;;;;;;;15.40;10.73;;;;;;;19.42;38.28;100779.84;5025309;28;20379;-74
2021/01/10 06:12:20;;;;;;;16.90;10.77;;;;;;;19.41;38.37;100781.56;5031829;28;20029;-75
2021/01/10 06:14:45;;;;;;;17.88;11.02;;;;;;;19.41;38.35;100781.56;5030419;28;20065;-75
2021/01/10 06:17:15;;;;;;;13.43;9.82;;;;;;;19.42;38.18;100785.09;5029959;28;20111;-74
2021/01/10 06:19:43;;;;;;;14.30;10.00;;;;;;;19.40;38.21;100782.44;5030060;28;20080;-74
2021/01/10 06:22:15;;;;;;;14.15;9.35;;;;;;;19.41;38.12;100778.94;5030732;28;20076;-74
2021/01/10 06:24:45;;;;;;;16.80;10.82;;;;;;;19.41;38.33;100778.94;5030015;28;20044;-75
2021/01/10 06:27:21;;;;;;;14.20;9.55;;;;;;;19.40;38.27;100776.34;5031440;28;20044;-74
2021/01/10 06:29:52;;;;;;;15.05;10.23;;;;;;;19.41;38.43;100783.34;5030225;28;20060;-73
2021/01/10 06:32:23;;;;;;;14.77;9.80;;;;;;;19.41;38.14;100781.56;5031363;28;20104;-75
2021/01/10 06:34:49;;;;;;;14.25;10.35;;;;;;;19.39;38.34;100770.19;5030740;28;20037;-75
2021/01/10 06:37:14;;;;;;;14.15;9.80;;;;;;;19.40;38.07;100773.72;5031316;28;20116;-75
2021/01/10 06:39:46;;;;;;;14.70;10.50;;;;;;;19.41;38.12;100776.31;5031168;28;20112;-75
2021/01/10 06:42:13;;;;;;;15.10;10.23;;;;;;;19.40;38.31;100771.94;5031194;28;20099;-76
2021/01/10 06:44:41;;;;;;;13.82;10.18;;;;;;;19.41;38.44;100771.06;5031090;28;20120;-74
2021/01/10 06:47:14;;;;;;;14.65;10.35;;;;;;;19.41;38.15;100784.19;5031186;28;20506;-77
2021/01/10 06:49:39;;;;;;;13.65;10.00;;;;;;;19.40;38.26;100771.09;5025174;28;20039;-74
2021/01/10 06:52:06;;;;;;;15.55;10.48;;;;;;;19.40;38.35;100778.97;5031126;28;20026;-73
2021/01/10 06:54:39;;;;;;;13.43;9.57;;;;;;;19.39;38.21;100775.44;5024653;28;20077;-74
2021/01/10 06:57:05;;;;;;;13.07;9.68;;;;;;;19.40;38.45;100779.81;5011179;28;20041;-75
2021/01/10 06:59:51;;;;;;;14.95;9.55;;;;;;;19.41;38.04;100784.19;5011014;28;20038;-75
2021/01/10 07:02:16;;;;;;;12.93;10.35;;;;;;;19.42;38.42;100775.44;5011401;28;20050;-73
2021/01/10 07:04:54;;;;;;;14.38;9.65;;;;;;;19.42;38.27;100774.56;5010970;28;20045;-74
2021/01/10 07:07:31;;;;;;;15.18;9.68;;;;;;;19.42;38.34;100788.56;5011032;28;20037;-74
2021/01/10 07:09:56;;;;;;;14.05;10.38;;;;;;;19.41;38.23;100786.81;5014077;28;20067;-74
2021/01/10 07:12:23;;;;;;;17.25;10.40;;;;;;;19.42;38.12;100785.94;5030777;28;20033;-76
2021/01/10 07:14:48;;;;;;;14.60;9.60;;;;;;;19.42;38.34;100778.06;5030246;28;20037;-76
2021/01/10 07:17:16;;;;;;;18.23;10.15;;;;;;;19.42;38.01;100785.94;5030583;28;20387;-76
2021/01/10 07:19:43;;;;;;;15.30;9.85;;;;;;;19.41;38.04;100785.97;5030117;28;20125;-74
2021/01/10 07:22:29;;;;;;;13.55;9.98;;;;;;;19.41;38.21;100783.34;5029165;28;20106;-77
2021/01/10 07:24:55;;;;;;;13.60;10.25;;;;;;;19.41;38.34;100788.59;5030460;28;20033;-75
2021/01/10 07:27:34;;;;;;;14.30;9.63;;;;;;;19.39;38.44;100785.97;5030159;28;20056;-73
2021/01/10 07:30:21;;;;;;;14.35;10.05;;;;;;;19.38;38.33;100783.38;5030282;28;20457;-75
2021/01/10 07:32:47;;;;;;;16.00;10.18;;;;;;;19.39;38.33;100777.22;5030377;28;20538;-73
2021/01/10 07:35:12;;;;;;;13.05;9.48;;;;;;;19.39;38.55;100783.34;5030247;28;20048;-77
2021/01/10 07:37:39;;;;;;;12.35;9.25;;;;;;;19.40;38.37;100782.44;5030030;28;20569;-74
2021/01/10 07:40:07;;;;;;;13.20;9.52;;;;;;;19.40;38.35;100784.22;5027850;28;20775;-75
2021/01/10 07:42:37;;;;;;;14.32;9.60;;;;;;;19.39;38.13;100790.38;5010117;28;20368;-77
2021/01/10 07:45:16;;;;;;;14.10;10.23;;;;;;;19.43;38.31;100787.69;5010590;28;20040;-75
2021/01/10 07:47:45;;;;;;;20.35;9.70;;;;;;;19.41;38.12;100789.47;5010361;28;20521;-75
2021/01/10 07:50:16;;;;;;;14.73;8.98;;;;;;;19.43;38.16;100792.09;5019370;28;20029;-76
2021/01/10 07:52:42;;;;;;;21.10;10.88;;;;;;;19.45;38.31;100793.81;5027383;28;20508;-77
2021/01/10 07:55:18;;;;;;;14.38;10.13;;;;;;;19.48;38.22;100792.91;5042973;28;20041;-76
2021/01/10 07:57:49;;;;;;;21.30;9.40;;;;;;;19.47;38.30;100794.66;5028964;28;20048;-77
2021/01/10 08:00:15;;;;;;;15.00;8.90;;;;;;;19.47;38.10;100786.78;5045303;28;20060;-76
2021/01/10 08:02:54;;;;;;;14.45;9.75;;;;;;;19.46;38.29;100792.94;5043743;28;20038;-76
2021/01/10 08:05:25;;;;;;;12.45;8.73;;;;;;;19.47;38.41;100794.66;5029781;28;20025;-74
2021/01/10 08:08:13;;;;;;;15.75;9.82;;;;;;;19.48;38.09;100795.53;5027818;28;20021;-78
2021/01/10 08:10:50;;;;;;;17.08;9.45;;;;;;;19.48;38.17;100804.31;5024497;28;20685;-77
2021/01/10 08:13:36;;;;;;;13.55;9.50;;;;;;;19.50;38.35;100806.03;5029007;28;20049;-77
2021/01/10 08:16:12;;;;;;;13.38;8.85;;;;;;;19.50;38.28;100811.31;5029685;28;20116;-75
2021/01/10 08:18:42;;;;;;;13.43;9.02;;;;;;;19.52;38.13;100812.16;5029617;28;20029;-76
2021/01/10 08:21:12;;;;;;;15.90;9.27;;;;;;;19.53;38.39;100812.13;5029302;28;20037;-75
2021/01/10 08:23:39;;;;;;;20.35;8.88;;;;;;;19.56;38.28;100808.59;5027752;28;20034;-80
2021/01/10 08:26:10;;;;;;;12.80;8.68;;;;;;;19.58;38.25;100812.97;5029197;28;20030;-77
2021/01/10 08:28:50;;;;;;;13.10;9.77;;;;;;;19.60;38.17;100815.59;5014252;28;20542;-77
2021/01/10 08:31:19;;;;;;;16.17;9.18;;;;;;;19.61;38.12;100819.97;5013470;28;20044;-76
2021/01/10 08:33:45;;;;;;;11.95;8.43;;;;;;;19.64;38.12;100827.81;5016457;28;20116;-75
2021/01/10 08:36:20;;;;;;;13.82;8.80;;;;;;;19.63;38.11;100826.06;5011680;28;20129;-74
2021/01/10 08:39:04;;;;;;;14.52;9.32;;;;;;;19.62;38.11;100819.94;5009912;28;20088;-73
2021/01/10 08:41:32;;;;;;;15.57;8.93;;;;;;;19.62;38.10;100827.81;5008482;28;20038;-72
2021/01/10 08:44:00;;;;;;;15.05;8.35;;;;;;;19.62;38.51;100822.56;5009188;28;20030;-73
2021/01/10 08:46:28;;;;;;;15.30;9.02;;;;;;;19.63;38.11;100828.72;5009558;28;20053;-73
2021/01/10 08:48:54;;;;;;;13.57;8.25;;;;;;;19.63;38.20;100836.59;5009064;28;20514;-76
2021/01/10 08:51:42;;;;;;;13.20;8.65;;;;;;;19.63;38.43;100828.72;5014943;28;20037;-73
2021/01/10 08:54:07;;;;;;;15.50;9.13;;;;;;;19.63;38.27;100832.19;5012219;28;20068;-76
2021/01/10 08:56:33;;;;;;;12.00;8.85;;;;;;;19.63;38.41;100831.34;5013247;28;20071;-73
2021/01/10 08:58:59;;;;;;;17.20;8.57;;;;;;;19.65;38.50;100833.94;5015037;28;20049;-76
2021/01/10 09:01:25;;;;;;;24.95;8.63;;;;;;;19.66;38.34;100833.06;5015389;28;20037;-74
2021/01/10 09:04:00;;;;;;;10.48;7.57;;;;;;;19.69;38.44;100839.19;5015148;28;20034;-74
2021/01/10 09:06:32;;;;;;;13.93;8.55;;;;;;;19.71;38.57;100841.78;5011235;28;20455;-73
2021/01/10 09:09:20;;;;;;;14.85;8.85;;;;;;;19.76;38.42;100837.38;5016867;28;20041;-74
2021/01/10 09:11:53;;;;;;;14.73;9.13;;;;;;;19.75;38.60;100833.84;5016214;28;20144;-75
2021/01/10 09:14:22;;;;;;;14.55;9.63;;;;;;;19.77;38.45;100834.72;5015313;28;20029;-73
2021/01/10 09:16:48;;;;;;;12.20;7.85;;;;;;;19.80;38.46;100849.56;5012599;28;20040;-73
2021/01/10 09:19:15;;;;;;;16.15;9.45;;;;;;;19.84;38.46;100850.44;5019114;28;20070;-73
2021/01/10 09:21:46;;;;;;;15.48;8.93;;;;;;;19.86;38.44;100846.00;5032614;28;20045;-75
2021/01/10 09:24:12;;;;;;;15.10;8.73;;;;;;;19.89;38.40;100851.28;5032033;28;20116;-74
2021/01/10 09:26:37;;;;;;;13.20;8.20;;;;;;;19.88;38.58;100852.16;5032630;28;20089;-74
2021/01/10 09:29:16;;;;;;;12.48;8.77;;;;;;;19.90;38.54;100853.03;5024983;28;20042;-75
2021/01/10 09:31:52;;;;;;;16.42;8.52;;;;;;;19.90;38.56;100851.28;5014942;28;20084;-74
2021/01/10 09:34:25;;;;;;;19.27;8.88;;;;;;;19.91;38.52;100853.03;5014651;28;20052;-73
2021/01/10 09:37:08;;;;;;;21.70;8.38;;;;;;;19.91;38.39;100853.03;5032353;28;20533;-74
2021/01/10 09:39:44;;;;;;;16.20;8.33;;;;;;;19.92;38.72;100851.25;5032000;28;20494;-73
2021/01/10 09:42:13;;;;;;;16.15;8.45;;;;;;;19.97;38.59;100864.34;5030200;28;20030;-74
2021/01/10 09:44:39;;;;;;;16.58;8.25;;;;;;;20.02;38.31;100863.41;5031346;28;20112;-73
2021/01/10 09:47:07;;;;;;;11.00;7.88;;;;;;;20.06;38.52;100866.91;5017853;28;20038;-72
2021/01/10 09:49:34;;;;;;;16.08;8.60;;;;;;;20.08;38.58;100865.13;5028802;28;20025;-76
2021/01/10 09:52:10;;;;;;;13.40;7.55;;;;;;;20.10;38.52;100860.69;5028509;28;20034;-75
2021/01/10 09:54:39;;;;;;;12.45;8.00;;;;;;;20.17;38.23;100859.78;5030394;28;20037;-75
2021/01/10 09:57:10;;;;;;;15.43;7.15;;;;;;;20.30;38.48;100860.50;5030772;28;20034;-75
2021/01/10 09:59:40;;;;;;;12.35;7.60;;;;;;;20.39;38.19;100863.03;5031759;28;20029;-73
2021/01/10 10:02:15;;;;;;;13.65;7.68;;;;;;;20.53;38.05;100851.44;5031884;28;20109;-75
2021/01/10 10:04:44;;;;;;;11.80;7.53;;;;;;;20.63;38.06;100852.22;5031730;28;20051;-73
2021/01/10 10:07:09;;;;;;;12.50;8.27;;;;;;;20.63;37.87;100857.47;5031519;28;20486;-74
2021/01/10 10:09:51;;;;;;;13.60;8.57;;;;;;;20.67;37.88;100859.19;5017506;28;20030;-73
2021/01/10 10:12:18;;;;;;;12.32;7.50;;;;;;;20.65;38.01;100856.56;5031911;28;20041;-72
2021/01/10 10:14:51;;;;;;;18.92;9.15;;;;;;;20.71;37.88;100860.88;5031833;28;20056;-74
2021/01/10 10:17:17;;;;;;;15.65;8.60;;;;;;;20.75;37.83;100861.72;5031603;28;20676;-72
2021/01/10 10:19:42;;;;;;;10.98;7.45;;;;;;;20.67;37.79;100860.03;5031525;28;20045;-73
2021/01/10 10:22:41;;;;;;;10.70;7.72;;;;;;;20.60;37.87;100854.88;5031319;28;20041;-75
2021/01/10 10:25:09;;;;;;;13.25;7.82;;;;;;;20.54;37.91;100853.19;5031053;28;20045;-74
2021/01/10 10:27:36;;;;;;;15.75;8.50;;;;;;;20.54;37.79;100863.72;5029473;28;20025;-74
2021/01/10 10:30:03;;;;;;;18.00;7.95;;;;;;;20.59;37.89;100855.75;5031350;28;20034;-73
2021/01/10 10:32:29;;;;;;;12.05;8.13;;;;;;;20.61;37.87;100851.34;5030465;28;20037;-74
2021/01/10 10:34:54;;;;;;;10.55;8.43;;;;;;;20.59;37.70;100858.41;5029887;28;20044;-73
2021/01/10 10:37:21;;;;;;;16.23;8.48;;;;;;;20.58;37.83;100852.28;5030016;28;20454;-73
2021/01/10 10:39:47;;;;;;;11.55;7.80;;;;;;;20.56;37.73;100851.41;5030777;28;20034;-73
2021/01/10 10:42:16;;;;;;;13.00;8.40;;;;;;;20.53;37.79;100847.06;5031331;28;20570;-73
2021/01/10 10:44:43;;;;;;;18.42;8.10;;;;;;;20.51;37.74;100847.97;5030136;28;20458;-73
2021/01/10 10:47:15;;;;;;;11.30;7.45;;;;;;;20.48;37.94;100848.00;5026505;28;20034;-75
2021/01/10 10:49:42;;;;;;;12.48;7.72;;;;;;;20.46;37.78;100845.41;5016282;28;20040;-73
2021/01/10 10:52:09;;;;;;;10.88;7.30;;;;;;;20.45;37.82;100850.69;5030987;28;20112;-74
2021/01/10 10:54:35;;;;;;;12.50;7.68;;;;;;;20.43;37.75;100853.31;5030680;28;20037;-74
2021/01/10 10:57:00;;;;;;;12.65;8.15;;;;;;;20.42;37.75;100848.94;5031172;28;20037;-75
2021/01/10 10:59:26;;;;;;;8.85;6.72;;;;;;;20.40;37.91;100848.09;5030617;28;20452;-73
2021/01/10 11:01:51;;;;;;;10.90;7.43;;;;;;;20.35;37.80;100848.16;5046344;28;20413;-75
2021/01/10 11:04:16;;;;;;;12.32;7.45;;;;;;;20.38;38.02;100842.00;5030595;28;20040;-73
2021/01/10 11:06:42;;;;;;;11.82;7.57;;;;;;;20.36;38.01;100842.00;5030037;28;20117;-73
2021/01/10 11:09:09;;;;;;;13.30;7.55;;;;;;;20.33;38.00;100841.16;5020137;28;20083;-75
2021/01/10 11:11:45;;;;;;;11.35;7.82;;;;;;;20.34;37.93;100835.03;5010880;28;20045;-73
2021/01/10 11:14:11;;;;;;;10.73;7.32;;;;;;;20.35;37.88;100832.34;5010960;28;20086;-74
2021/01/10 11:16:38;;;;;;;10.68;7.00;;;;;;;20.35;37.76;100829.72;5015883;28;20029;-74
2021/01/10 11:19:07;;;;;;;12.27;7.53;;;;;;;20.35;37.70;100832.34;5030356;28;20107;-73
2021/01/10 11:21:34;;;;;;;11.55;7.57;;;;;;;20.35;37.77;100827.09;5028588;28;20034;-76
2021/01/10 11:24:00;;;;;;;11.52;7.97;;;;;;;20.35;37.90;100826.22;5030389;28;20109;-73